createdAt,value
2018-09-28T00:00:41.460Z,0
2018-09-28T00:01:42.130Z,0
2018-09-28T00:02:42.802Z,0
2018-09-28T00:03:43.473Z,0
2018-09-28T00:04:44.185Z,0
2018-09-28T00:05:44.855Z,0
2018-09-28T00:06:45.525Z,0
2018-09-28T00:07:46.197Z,0
2018-09-28T00:08:46.869Z,0
2018-09-28T00:09:47.536Z,0
2018-09-28T00:10:48.206Z,0
2018-09-28T00:11:48.877Z,0
2018-09-28T00:12:49.545Z,0
2018-09-28T00:13:50.215Z,0
2018-09-28T00:14:50.885Z,0
2018-09-28T00:15:51.554Z,0
2018-09-28T00:16:52.225Z,0
2018-09-28T00:17:52.895Z,0
2018-09-28T00:18:53.566Z,0
2018-09-28T00:19:54.236Z,0
2018-09-28T00:20:54.904Z,0
2018-09-28T00:21:55.577Z,0
2018-09-28T00:22:56.246Z,0
2018-09-28T00:23:56.917Z,0
2018-09-28T00:24:57.587Z,0
2018-09-28T00:25:58.307Z,0
2018-09-28T00:26:58.928Z,0
2018-09-28T00:27:59.599Z,0
2018-09-28T00:29:00.271Z,0
2018-09-28T00:30:00.944Z,0
2018-09-28T00:31:01.611Z,0
2018-09-28T00:32:02.283Z,0
2018-09-28T00:33:03.003Z,0
2018-09-28T00:34:03.672Z,0
2018-09-28T00:35:04.343Z,0
2018-09-28T00:36:05.015Z,0
2018-09-28T00:37:05.684Z,0
2018-09-28T00:38:06.354Z,0
2018-09-28T00:39:07.024Z,0
2018-09-28T00:40:07.696Z,0
2018-09-28T00:41:08.368Z,0
2018-09-28T00:42:09.037Z,0
2018-09-28T00:43:09.707Z,0
2018-09-28T00:44:10.376Z,0
2018-09-28T00:45:11.046Z,0
2018-09-28T00:46:11.717Z,0
2018-09-28T00:47:12.387Z,0
2018-09-28T00:48:13.102Z,0
2018-09-28T00:49:13.775Z,0
2018-09-28T00:50:14.442Z,0
2018-09-28T00:51:15.111Z,0
2018-09-28T00:52:15.783Z,0
2018-09-28T00:53:16.453Z,0
2018-09-28T00:54:17.126Z,0
2018-09-28T00:55:17.794Z,0
2018-09-28T00:56:18.468Z,0
2018-09-28T00:57:19.135Z,0
2018-09-28T00:58:19.806Z,0
2018-09-28T00:59:20.477Z,0
2018-09-28T01:00:21.146Z,0
2018-09-28T01:01:21.817Z,0
2018-09-28T01:02:22.487Z,0
2018-09-28T01:03:23.158Z,0
2018-09-28T01:04:23.827Z,0
2018-09-28T01:05:24.496Z,0
2018-09-28T01:06:25.168Z,0
2018-09-28T01:07:25.838Z,0
2018-09-28T01:08:26.552Z,0
2018-09-28T01:09:27.221Z,0
2018-09-28T01:10:27.890Z,0
2018-09-28T01:11:28.563Z,0
2018-09-28T01:12:29.232Z,0
2018-09-28T01:13:29.904Z,0
2018-09-28T01:14:30.573Z,0
2018-09-28T01:15:31.240Z,0
2018-09-28T01:16:31.910Z,0
2018-09-28T01:17:32.583Z,0
2018-09-28T01:18:33.303Z,0
2018-09-28T01:19:33.971Z,0
2018-09-28T01:20:34.643Z,0
2018-09-28T01:21:35.315Z,0
2018-09-28T01:22:35.982Z,0
2018-09-28T01:23:36.653Z,0
2018-09-28T01:24:37.321Z,0
2018-09-28T01:25:37.992Z,0
2018-09-28T01:26:38.663Z,0
2018-09-28T01:27:39.376Z,0
2018-09-28T01:28:40.046Z,0
2018-09-28T01:29:40.716Z,0
2018-09-28T01:30:41.392Z,0
2018-09-28T01:31:42.102Z,0
2018-09-28T01:32:42.771Z,0
2018-09-28T01:33:43.446Z,0
2018-09-28T01:34:44.111Z,0
2018-09-28T01:35:44.783Z,0
2018-09-28T01:36:45.454Z,0
2018-09-28T01:37:46.123Z,0
2018-09-28T01:38:46.792Z,0
2018-09-28T01:39:47.461Z,0
2018-09-28T01:40:48.130Z,0
2018-09-28T01:41:48.802Z,0
2018-09-28T01:42:49.485Z,0
2018-09-28T01:43:50.187Z,0
2018-09-28T01:44:50.855Z,0
2018-09-28T01:45:51.527Z,0
2018-09-28T01:46:52.197Z,0
2018-09-28T01:47:52.871Z,0
2018-09-28T01:48:53.582Z,0
2018-09-28T01:49:54.250Z,0
2018-09-28T01:50:54.923Z,0
2018-09-28T01:51:55.592Z,0
2018-09-28T01:52:56.263Z,0
2018-09-28T01:53:56.932Z,0
2018-09-28T01:54:57.602Z,0
2018-09-28T01:55:58.274Z,0
2018-09-28T01:56:58.987Z,0
2018-09-28T01:57:59.657Z,0
2018-09-28T01:59:00.327Z,0
2018-09-28T02:00:00.999Z,0
2018-09-28T02:01:01.713Z,0
2018-09-28T02:02:02.382Z,0
2018-09-28T02:03:03.052Z,0
2018-09-28T02:04:03.719Z,0
2018-09-28T02:05:04.388Z,0
2018-09-28T02:06:05.102Z,0
2018-09-28T02:07:05.773Z,0
2018-09-28T02:08:06.487Z,0
2018-09-28T02:09:07.156Z,0
2018-09-28T02:10:07.825Z,0
2018-09-28T02:11:08.496Z,0
2018-09-28T02:12:09.166Z,0
2018-09-28T02:13:09.835Z,0
2018-09-28T02:14:10.508Z,0
2018-09-28T02:15:11.174Z,0
2018-09-28T02:16:11.845Z,0
2018-09-28T02:17:12.513Z,0
2018-09-28T02:18:13.183Z,0
2018-09-28T02:19:13.893Z,0
2018-09-28T02:20:14.567Z,0
2018-09-28T02:21:15.266Z,0
2018-09-28T02:22:15.952Z,0
2018-09-28T02:23:16.624Z,0
2018-09-28T02:24:17.292Z,0
2018-09-28T02:25:17.960Z,0
2018-09-28T02:26:18.632Z,0
2018-09-28T02:27:19.303Z,0
2018-09-28T02:28:19.974Z,0
2018-09-28T02:29:20.642Z,0
2018-09-28T02:30:21.311Z,0
2018-09-28T02:31:21.983Z,0
2018-09-28T02:32:22.658Z,0
2018-09-28T02:33:23.320Z,0
2018-09-28T02:34:23.991Z,0
2018-09-28T02:35:24.660Z,0
2018-09-28T02:36:25.330Z,0
2018-09-28T02:37:26.002Z,0
2018-09-28T02:38:26.670Z,0
2018-09-28T02:39:27.341Z,0
2018-09-28T02:40:28.009Z,0
2018-09-28T02:41:28.678Z,0
2018-09-28T02:42:29.348Z,0
2018-09-28T02:43:30.019Z,0
2018-09-28T02:44:30.733Z,0
2018-09-28T02:45:31.402Z,0
2018-09-28T02:46:32.071Z,0
2018-09-28T02:47:32.742Z,0
2018-09-28T02:48:33.411Z,0
2018-09-28T02:49:34.082Z,0
2018-09-28T02:50:34.795Z,0
2018-09-28T02:51:35.465Z,0
2018-09-28T02:52:36.181Z,0
2018-09-28T02:53:36.893Z,0
2018-09-28T02:54:37.563Z,0
2018-09-28T02:55:38.233Z,0
2018-09-28T02:56:38.903Z,0
2018-09-28T02:57:39.575Z,0
2018-09-28T02:58:40.288Z,0
2018-09-28T02:59:40.958Z,0
2018-09-28T03:00:41.627Z,0
2018-09-28T03:01:42.296Z,0
2018-09-28T03:02:42.968Z,0
2018-09-28T03:03:43.640Z,0
2018-09-28T03:04:44.307Z,0
2018-09-28T03:05:44.979Z,0
2018-09-28T03:06:45.689Z,0
2018-09-28T03:07:46.360Z,0
2018-09-28T03:08:47.030Z,0
2018-09-28T03:09:47.699Z,0
2018-09-28T03:10:48.368Z,0
2018-09-28T03:11:49.038Z,0
2018-09-28T03:12:49.708Z,0
2018-09-28T03:13:50.378Z,0
2018-09-28T03:14:51.048Z,0
2018-09-28T03:15:51.718Z,0
2018-09-28T03:16:52.386Z,0
2018-09-28T03:17:53.057Z,0
2018-09-28T03:18:53.732Z,0
2018-09-28T03:19:54.398Z,0
2018-09-28T03:20:55.068Z,0
2018-09-28T03:21:55.739Z,0
2018-09-28T03:22:56.410Z,0
2018-09-28T03:23:57.084Z,0
2018-09-28T03:24:57.792Z,0
2018-09-28T03:25:58.474Z,0
2018-09-28T03:26:59.131Z,0
2018-09-28T03:27:59.810Z,0
2018-09-28T03:29:00.515Z,0
2018-09-28T03:30:01.185Z,0
2018-09-28T03:31:01.856Z,0
2018-09-28T03:32:02.568Z,0
2018-09-28T03:33:03.239Z,0
2018-09-28T03:34:03.910Z,0
2018-09-28T03:35:04.586Z,0
2018-09-28T03:36:05.294Z,0
2018-09-28T03:37:05.963Z,0
2018-09-28T03:38:06.635Z,0
2018-09-28T03:39:07.302Z,0
2018-09-28T03:40:07.973Z,0
2018-09-28T03:41:08.644Z,0
2018-09-28T03:42:09.312Z,0
2018-09-28T03:43:09.984Z,0
2018-09-28T03:44:10.654Z,0
2018-09-28T03:45:11.325Z,0
2018-09-28T03:46:11.994Z,0
2018-09-28T03:47:12.663Z,0
2018-09-28T03:48:13.334Z,0
2018-09-28T03:49:14.006Z,0
2018-09-28T03:50:14.674Z,0
2018-09-28T03:51:15.343Z,0
2018-09-28T03:52:16.013Z,0
2018-09-28T03:53:16.684Z,0
2018-09-28T03:54:17.352Z,0
2018-09-28T03:55:18.020Z,0
2018-09-28T03:56:18.690Z,0
2018-09-28T03:57:19.360Z,0
2018-09-28T03:58:20.031Z,0
2018-09-28T03:59:20.700Z,0
2018-09-28T04:00:21.369Z,0
2018-09-28T04:01:22.040Z,0
2018-09-28T04:02:22.708Z,0
2018-09-28T04:03:23.377Z,0
2018-09-28T04:04:24.049Z,0
2018-09-28T04:05:24.717Z,0
2018-09-28T04:06:25.387Z,0
2018-09-28T04:07:26.057Z,0
2018-09-28T04:08:26.729Z,0
2018-09-28T04:09:27.399Z,0
2018-09-28T04:10:28.070Z,0
2018-09-28T04:11:28.740Z,0
2018-09-28T04:12:29.409Z,0
2018-09-28T04:13:30.079Z,0
2018-09-28T04:14:30.749Z,0
2018-09-28T04:15:31.418Z,0
2018-09-28T04:16:32.088Z,0
2018-09-28T04:17:32.757Z,0
2018-09-28T04:18:33.427Z,0
2018-09-28T04:19:34.099Z,0
2018-09-28T04:20:34.770Z,0
2018-09-28T04:21:35.437Z,0
2018-09-28T04:22:36.107Z,0
2018-09-28T04:23:36.778Z,0
2018-09-28T04:24:37.491Z,0
2018-09-28T04:25:38.161Z,0
2018-09-28T04:26:38.831Z,0
2018-09-28T04:27:39.526Z,0
2018-09-28T04:28:40.170Z,0
2018-09-28T04:29:40.840Z,0
2018-09-28T04:30:41.508Z,0
2018-09-28T04:31:42.223Z,0
2018-09-28T04:32:42.892Z,0
2018-09-28T04:33:43.561Z,0
2018-09-28T04:34:44.231Z,0
2018-09-28T04:35:44.902Z,0
2018-09-28T04:36:45.572Z,0
2018-09-28T04:37:46.242Z,0
2018-09-28T04:38:46.910Z,0
2018-09-28T04:39:47.581Z,4
2018-09-28T04:40:48.250Z,4
2018-09-28T04:41:48.919Z,4
2018-09-28T04:42:49.589Z,0
2018-09-28T04:43:50.260Z,4
2018-09-28T04:44:50.931Z,4
2018-09-28T04:45:51.630Z,4
2018-09-28T04:46:52.313Z,4
2018-09-28T04:47:52.981Z,4
2018-09-28T04:48:53.650Z,8
2018-09-28T04:49:54.321Z,8
2018-09-28T04:50:54.991Z,12
2018-09-28T04:51:55.661Z,12
2018-09-28T04:52:56.332Z,16
2018-09-28T04:53:57.003Z,20
2018-09-28T04:54:57.675Z,24
2018-09-28T04:55:58.345Z,28
2018-09-28T04:56:59.061Z,28
2018-09-28T04:57:59.730Z,36
2018-09-28T04:59:00.403Z,40
2018-09-28T05:00:01.074Z,48
2018-09-28T05:01:01.745Z,56
2018-09-28T05:02:02.417Z,60
2018-09-28T05:03:03.086Z,72
2018-09-28T05:04:03.757Z,80
2018-09-28T05:05:04.427Z,92
2018-09-28T05:06:05.100Z,100
2018-09-28T05:07:05.768Z,112
2018-09-28T05:08:06.443Z,124
2018-09-28T05:09:07.157Z,136
2018-09-28T05:10:07.829Z,152
2018-09-28T05:11:08.500Z,168
2018-09-28T05:12:09.172Z,184
2018-09-28T05:13:09.903Z,196
2018-09-28T05:14:10.517Z,212
2018-09-28T05:15:11.188Z,232
2018-09-28T05:16:11.861Z,248
2018-09-28T05:17:12.536Z,272
2018-09-28T05:18:13.248Z,288
2018-09-28T05:19:13.920Z,308
2018-09-28T05:20:14.594Z,332
2018-09-28T05:21:15.262Z,356
2018-09-28T05:22:15.935Z,380
2018-09-28T05:23:16.607Z,408
2018-09-28T05:24:17.280Z,440
2018-09-28T05:25:18.017Z,468
2018-09-28T05:26:18.624Z,500
2018-09-28T05:27:19.302Z,532
2018-09-28T05:28:19.972Z,564
2018-09-28T05:29:20.646Z,588
2018-09-28T05:30:21.314Z,612
2018-09-28T05:31:22.050Z,644
2018-09-28T05:32:22.873Z,680
2018-09-28T05:33:23.333Z,720
2018-09-28T05:34:24.005Z,756
2018-09-28T05:35:24.679Z,788
2018-09-28T05:36:25.352Z,820
2018-09-28T05:37:26.025Z,860
2018-09-28T05:38:26.740Z,896
2018-09-28T05:39:27.469Z,924
2018-09-28T05:40:28.125Z,948
2018-09-28T05:41:28.797Z,984
2018-09-28T05:42:29.470Z,1032
2018-09-28T05:43:30.146Z,1084
2018-09-28T05:44:30.820Z,1128
2018-09-28T05:45:31.492Z,1176
2018-09-28T05:46:32.171Z,1216
2018-09-28T05:47:32.841Z,1256
2018-09-28T05:48:33.514Z,1304
2018-09-28T05:49:34.188Z,1352
2018-09-28T05:50:34.861Z,1392
2018-09-28T05:51:35.535Z,1428
2018-09-28T05:52:36.208Z,1456
2018-09-28T05:53:36.884Z,1488
2018-09-28T05:54:37.557Z,1528
2018-09-28T05:55:38.231Z,1580
2018-09-28T05:56:38.905Z,1636
2018-09-28T05:57:39.585Z,1692
2018-09-28T05:58:40.289Z,1724
2018-09-28T05:59:40.926Z,1740
2018-09-28T06:00:41.600Z,1760
2018-09-28T06:01:42.319Z,1792
2018-09-28T06:02:42.991Z,1824
2018-09-28T06:03:43.666Z,1844
2018-09-28T06:04:44.339Z,1864
2018-09-28T06:05:45.015Z,1880
2018-09-28T06:06:45.686Z,1876
2018-09-28T06:07:46.361Z,1912
2018-09-28T06:08:47.034Z,1988
2018-09-28T06:09:47.707Z,2032
2018-09-28T06:10:48.383Z,2064
2018-09-28T06:11:49.058Z,2112
2018-09-28T06:12:49.773Z,2160
2018-09-28T06:13:50.451Z,2200
2018-09-28T06:14:51.121Z,2192
2018-09-28T06:15:51.796Z,2292
2018-09-28T06:16:52.470Z,2380
2018-09-28T06:17:53.199Z,2424
2018-09-28T06:18:53.956Z,2476
2018-09-28T06:19:54.563Z,2500
2018-09-28T06:20:55.241Z,2504
2018-09-28T06:21:55.956Z,2496
2018-09-28T06:22:56.630Z,2492
2018-09-28T06:23:57.339Z,2568
2018-09-28T06:24:57.981Z,2632
2018-09-28T06:25:58.671Z,2692
2018-09-28T06:26:59.327Z,2716
2018-09-28T06:28:00.002Z,2720
2018-09-28T06:29:00.677Z,2732
2018-09-28T06:30:01.357Z,2768
2018-09-28T06:31:02.024Z,2800
2018-09-28T06:32:02.700Z,2816
2018-09-28T06:33:03.374Z,2836
2018-09-28T06:34:04.049Z,2864
2018-09-28T06:35:04.724Z,2908
2018-09-28T06:36:05.418Z,2968
2018-09-28T06:37:06.116Z,3024
2018-09-28T06:38:06.806Z,3060
2018-09-28T06:39:07.464Z,3084
2018-09-28T06:40:08.139Z,3108
2018-09-28T06:41:08.812Z,3120
2018-09-28T06:42:09.500Z,3120
2018-09-28T06:43:10.171Z,3128
2018-09-28T06:44:10.845Z,3132
2018-09-28T06:45:11.518Z,3112
2018-09-28T06:46:12.194Z,3088
2018-09-28T06:47:12.913Z,3108
2018-09-28T06:48:13.652Z,3128
2018-09-28T06:49:14.262Z,3164
2018-09-28T06:50:14.936Z,3208
2018-09-28T06:51:15.626Z,3260
2018-09-28T06:52:16.290Z,3316
2018-09-28T06:53:16.964Z,3368
2018-09-28T06:54:17.652Z,3392
2018-09-28T06:55:18.317Z,3292
2018-09-28T06:56:18.991Z,3296
2018-09-28T06:57:19.668Z,3456
2018-09-28T06:58:20.376Z,3604
2018-09-28T06:59:21.020Z,3704
2018-09-28T07:00:21.767Z,3912
2018-09-28T07:01:22.366Z,4020
2018-09-28T07:02:23.050Z,4088
2018-09-28T07:03:23.779Z,4204
2018-09-28T07:04:24.511Z,4288
2018-09-28T07:05:25.204Z,4332
2018-09-28T07:06:25.880Z,4348
2018-09-28T07:07:26.556Z,4368
2018-09-28T07:08:27.231Z,4392
2018-09-28T07:09:27.929Z,4436
2018-09-28T07:10:28.586Z,4488
2018-09-28T07:11:29.262Z,4564
2018-09-28T07:12:29.941Z,4600
2018-09-28T07:13:30.646Z,4612
2018-09-28T07:14:31.296Z,4624
2018-09-28T07:15:31.994Z,4616
2018-09-28T07:16:32.719Z,4428
2018-09-28T07:17:33.417Z,4324
2018-09-28T07:18:34.092Z,4104
2018-09-28T07:19:34.768Z,3920
2018-09-28T07:20:35.443Z,3888
2018-09-28T07:21:36.123Z,3780
2018-09-28T07:22:36.796Z,3972
2018-09-28T07:23:37.473Z,3944
2018-09-28T07:24:38.164Z,3940
2018-09-28T07:25:38.834Z,3996
2018-09-28T07:26:39.549Z,4368
2018-09-28T07:27:40.234Z,4492
2018-09-28T07:28:40.946Z,4584
2018-09-28T07:29:41.642Z,4720
2018-09-28T07:30:42.300Z,4840
2018-09-28T07:31:43.022Z,4860
2018-09-28T07:32:43.702Z,4840
2018-09-28T07:33:44.419Z,4664
2018-09-28T07:34:45.096Z,4400
2018-09-28T07:35:45.820Z,4128
2018-09-28T07:36:46.545Z,4088
2018-09-28T07:37:47.129Z,4492
2018-09-28T07:38:47.808Z,4224
2018-09-28T07:39:48.484Z,4048
2018-09-28T07:40:49.162Z,4168
2018-09-28T07:41:49.873Z,4344
2018-09-28T07:42:50.554Z,4320
2018-09-28T07:43:51.241Z,4728
2018-09-28T07:44:51.920Z,4792
2018-09-28T07:45:52.599Z,4884
2018-09-28T07:46:53.276Z,4964
2018-09-28T07:47:53.987Z,5044
2018-09-28T07:48:54.632Z,5332
2018-09-28T07:49:55.311Z,5732
2018-09-28T07:50:55.989Z,6512
2018-09-28T07:51:56.668Z,7544
2018-09-28T07:52:57.354Z,8860
2018-09-28T07:53:58.068Z,8856
2018-09-28T07:54:58.750Z,8168
2018-09-28T07:55:59.471Z,6704
2018-09-28T07:57:00.147Z,6600
2018-09-28T07:58:00.824Z,5372
2018-09-28T07:59:01.505Z,4876
2018-09-28T08:00:02.229Z,5064
2018-09-28T08:01:02.909Z,6084
2018-09-28T08:02:03.588Z,7288
2018-09-28T08:03:04.268Z,7108
2018-09-28T08:04:05.018Z,5812
2018-09-28T08:05:05.628Z,5468
2018-09-28T08:06:06.315Z,5908
2018-09-28T08:07:06.988Z,6272
2018-09-28T08:08:07.667Z,6496
2018-09-28T08:09:08.346Z,6216
2018-09-28T08:10:09.026Z,5868
2018-09-28T08:11:09.710Z,6036
2018-09-28T08:12:10.386Z,6420
2018-09-28T08:13:11.068Z,6480
2018-09-28T08:14:11.747Z,6592
2018-09-28T08:15:12.428Z,6036
2018-09-28T08:16:13.107Z,7036
2018-09-28T08:17:13.787Z,7432
2018-09-28T08:18:14.470Z,7428
2018-09-28T08:19:15.154Z,6768
2018-09-28T08:20:15.878Z,5908
2018-09-28T08:21:16.558Z,5460
2018-09-28T08:22:17.287Z,5260
2018-09-28T08:23:18.000Z,4936
2018-09-28T08:24:18.651Z,5012
2018-09-28T08:25:19.330Z,5436
2018-09-28T08:26:20.017Z,5888
2018-09-28T08:27:20.692Z,6540
2018-09-28T08:28:21.373Z,7500
2018-09-28T08:29:22.056Z,8220
2018-09-28T08:30:22.823Z,7696
2018-09-28T08:31:23.420Z,6896
2018-09-28T08:32:24.102Z,7072
2018-09-28T08:33:24.783Z,8952
2018-09-28T08:34:25.466Z,11272
2018-09-28T08:35:26.150Z,11836
2018-09-28T08:36:26.931Z,10336
2018-09-28T08:37:27.519Z,8664
2018-09-28T08:38:28.200Z,6788
2018-09-28T08:39:28.885Z,4268
2018-09-28T08:40:29.568Z,3500
2018-09-28T08:41:30.252Z,3548
2018-09-28T08:42:30.975Z,3496
2018-09-28T08:43:31.707Z,3184
2018-09-28T08:44:32.340Z,2828
2018-09-28T08:45:33.064Z,2632
2018-09-28T08:46:33.744Z,2492
2018-09-28T08:47:34.427Z,2344
2018-09-28T08:48:35.107Z,2140
2018-09-28T08:49:35.789Z,1884
2018-09-28T08:50:36.469Z,1800
2018-09-28T08:51:37.151Z,1712
2018-09-28T08:52:37.832Z,1764
2018-09-28T08:53:38.515Z,1948
2018-09-28T08:54:39.192Z,2104
2018-09-28T08:55:39.873Z,2264
2018-09-28T08:56:40.553Z,2516
2018-09-28T08:57:41.235Z,3012
2018-09-28T08:58:41.917Z,3352
2018-09-28T08:59:42.598Z,3316
2018-09-28T09:00:43.670Z,2908
2018-09-28T09:01:44.285Z,2548
2018-09-28T09:02:45.009Z,2444
2018-09-28T09:03:45.687Z,2452
2018-09-28T09:04:46.367Z,2424
2018-09-28T09:05:47.048Z,2292
2018-09-28T09:06:47.727Z,2132
2018-09-28T09:07:48.408Z,1964
2018-09-28T09:08:49.089Z,1824
2018-09-28T09:09:49.771Z,1892
2018-09-28T09:10:50.453Z,2168
2018-09-28T09:11:51.129Z,2368
2018-09-28T09:12:51.807Z,2176
2018-09-28T09:13:52.488Z,1768
2018-09-28T09:14:53.168Z,1740
2018-09-28T09:15:53.856Z,1840
2018-09-28T09:16:54.569Z,1844
2018-09-28T09:17:55.315Z,1932
2018-09-28T09:18:55.927Z,2044
2018-09-28T09:19:56.607Z,1940
2018-09-28T09:20:57.286Z,1868
2018-09-28T09:21:57.965Z,1836
2018-09-28T09:22:58.645Z,1664
2018-09-28T09:23:59.404Z,1412
2018-09-28T09:25:00.011Z,1112
2018-09-28T09:26:00.684Z,964
2018-09-28T09:27:01.404Z,928
2018-09-28T09:28:02.084Z,1056
2018-09-28T09:29:02.763Z,1196
2018-09-28T09:30:03.495Z,1340
2018-09-28T09:31:04.123Z,1424
2018-09-28T09:32:04.800Z,1420
2018-09-28T09:33:05.479Z,1276
2018-09-28T09:34:06.158Z,1116
2018-09-28T09:35:06.837Z,1100
2018-09-28T09:36:07.516Z,1164
2018-09-28T09:37:08.194Z,1284
2018-09-28T09:38:08.874Z,1360
2018-09-28T09:39:09.551Z,1416
2018-09-28T09:40:10.229Z,1444
2018-09-28T09:41:10.908Z,1428
2018-09-28T09:42:11.594Z,1400
2018-09-28T09:43:12.264Z,1352
2018-09-28T09:44:12.942Z,1308
2018-09-28T09:45:13.619Z,1296
2018-09-28T09:46:14.298Z,1324
2018-09-28T09:47:14.976Z,1376
2018-09-28T09:48:15.654Z,1420
2018-09-28T09:49:16.334Z,1424
2018-09-28T09:50:17.011Z,1380
2018-09-28T09:51:17.692Z,1348
2018-09-28T09:52:18.369Z,1376
2018-09-28T09:53:19.047Z,1432
2018-09-28T09:54:19.773Z,1492
2018-09-28T09:55:20.492Z,1568
2018-09-28T09:56:21.169Z,1676
2018-09-28T09:57:21.850Z,1776
2018-09-28T09:58:22.528Z,1828
2018-09-28T09:59:23.206Z,1844
2018-09-28T10:00:23.884Z,1860
2018-09-28T10:01:24.563Z,1916
2018-09-28T10:02:25.243Z,2024
2018-09-28T10:03:25.922Z,2204
2018-09-28T10:04:26.601Z,2460
2018-09-28T10:05:27.278Z,2696
2018-09-28T10:06:27.958Z,2880
2018-09-28T10:07:28.636Z,3008
2018-09-28T10:08:29.358Z,3040
2018-09-28T10:09:30.038Z,2956
2018-09-28T10:10:30.715Z,2832
2018-09-28T10:11:31.435Z,2676
2018-09-28T10:12:32.231Z,2528
2018-09-28T10:13:32.827Z,2408
2018-09-28T10:14:33.504Z,2336
2018-09-28T10:15:34.182Z,2300
2018-09-28T10:16:34.858Z,2320
2018-09-28T10:17:35.538Z,2384
2018-09-28T10:18:36.215Z,2352
2018-09-28T10:19:36.957Z,2216
2018-09-28T10:20:37.570Z,2080
2018-09-28T10:21:38.248Z,2076
2018-09-28T10:22:38.927Z,2072
2018-09-28T10:23:39.605Z,1952
2018-09-28T10:24:40.324Z,1740
2018-09-28T10:25:41.003Z,1604
2018-09-28T10:26:41.683Z,1564
2018-09-28T10:27:42.427Z,1580
2018-09-28T10:28:43.172Z,1544
2018-09-28T10:29:43.759Z,1496
2018-09-28T10:30:44.437Z,1416
2018-09-28T10:31:45.117Z,1520
2018-09-28T10:32:45.795Z,1608
2018-09-28T10:33:46.517Z,1632
2018-09-28T10:34:47.213Z,1564
2018-09-28T10:35:47.874Z,1620
2018-09-28T10:36:48.595Z,1680
2018-09-28T10:37:49.275Z,1680
2018-09-28T10:38:49.952Z,1624
2018-09-28T10:39:50.694Z,1584
2018-09-28T10:40:51.388Z,1596
2018-09-28T10:41:51.987Z,1660
2018-09-28T10:42:52.664Z,1580
2018-09-28T10:43:53.343Z,1580
2018-09-28T10:44:54.022Z,1604
2018-09-28T10:45:54.699Z,1596
2018-09-28T10:46:55.379Z,1612
2018-09-28T10:47:56.058Z,1868
2018-09-28T10:48:56.735Z,1860
2018-09-28T10:49:57.413Z,1640
2018-09-28T10:50:58.131Z,1628
2018-09-28T10:51:58.893Z,1576
2018-09-28T10:52:59.512Z,1388
2018-09-28T10:54:00.159Z,1324
2018-09-28T10:55:00.835Z,1392
2018-09-28T10:56:01.514Z,1496
2018-09-28T10:57:02.190Z,1620
2018-09-28T10:58:02.867Z,1748
2018-09-28T10:59:03.589Z,1812
2018-09-28T11:00:04.267Z,1968
2018-09-28T11:01:04.955Z,2224
2018-09-28T11:02:05.665Z,2228
2018-09-28T11:03:06.391Z,2092
2018-09-28T11:04:07.025Z,1992
2018-09-28T11:05:07.696Z,2112
2018-09-28T11:06:08.375Z,2168
2018-09-28T11:07:09.057Z,2228
2018-09-28T11:08:09.731Z,2508
2018-09-28T11:09:10.413Z,2660
2018-09-28T11:10:11.109Z,2676
2018-09-28T11:11:11.766Z,2816
2018-09-28T11:12:12.489Z,2576
2018-09-28T11:13:13.166Z,2616
2018-09-28T11:14:13.844Z,2608
2018-09-28T11:15:14.562Z,3132
2018-09-28T11:16:15.202Z,2856
2018-09-28T11:17:15.918Z,2444
2018-09-28T11:18:16.601Z,2692
2018-09-28T11:19:17.278Z,2712
2018-09-28T11:20:17.956Z,2584
2018-09-28T11:21:18.670Z,3060
2018-09-28T11:22:19.314Z,3060
2018-09-28T11:23:19.991Z,3060
2018-09-28T11:24:20.668Z,2680
2018-09-28T11:25:21.347Z,2476
2018-09-28T11:26:22.033Z,2428
2018-09-28T11:27:22.755Z,2524
2018-09-28T11:28:23.380Z,2616
2018-09-28T11:29:24.058Z,2616
2018-09-28T11:30:24.738Z,2452
2018-09-28T11:31:25.415Z,2360
2018-09-28T11:32:26.093Z,2328
2018-09-28T11:33:26.788Z,2168
2018-09-28T11:34:27.451Z,1944
2018-09-28T11:35:28.129Z,1784
2018-09-28T11:36:28.810Z,1988
2018-09-28T11:37:29.583Z,2180
2018-09-28T11:38:30.208Z,2504
2018-09-28T11:39:30.889Z,3228
2018-09-28T11:40:31.611Z,4592
2018-09-28T11:41:32.279Z,5216
2018-09-28T11:42:32.960Z,5024
2018-09-28T11:43:33.640Z,4544
2018-09-28T11:44:34.320Z,4228
2018-09-28T11:45:35.066Z,4036
2018-09-28T11:46:35.680Z,3764
2018-09-28T11:47:36.359Z,3356
2018-09-28T11:48:37.036Z,3080
2018-09-28T11:49:37.717Z,3092
2018-09-28T11:50:38.421Z,3220
2018-09-28T11:51:39.131Z,3168
2018-09-28T11:52:39.798Z,2984
2018-09-28T11:53:40.477Z,2700
2018-09-28T11:54:41.155Z,2640
2018-09-28T11:55:41.848Z,2812
2018-09-28T11:56:42.595Z,3080
2018-09-28T11:57:43.341Z,3236
2018-09-28T11:58:43.958Z,3140
2018-09-28T11:59:44.636Z,2696
2018-09-28T12:00:45.315Z,2372
2018-09-28T12:01:45.995Z,2124
2018-09-28T12:02:46.717Z,2072
2018-09-28T12:03:47.476Z,2332
2018-09-28T12:04:48.110Z,2700
2018-09-28T12:05:48.789Z,2956
2018-09-28T12:06:49.589Z,3192
2018-09-28T12:07:50.149Z,3344
2018-09-28T12:08:50.876Z,3604
2018-09-28T12:09:51.595Z,3404
2018-09-28T12:10:52.284Z,3116
2018-09-28T12:11:52.997Z,2740
2018-09-28T12:12:53.684Z,2276
2018-09-28T12:13:54.358Z,2000
2018-09-28T12:14:55.080Z,1832
2018-09-28T12:15:55.799Z,1776
2018-09-28T12:16:56.477Z,1772
2018-09-28T12:17:57.186Z,1656
2018-09-28T12:18:57.878Z,1492
2018-09-28T12:19:58.558Z,1196
2018-09-28T12:20:59.236Z,1276
2018-09-28T12:21:59.913Z,1396
2018-09-28T12:23:00.591Z,1428
2018-09-28T12:24:01.283Z,1316
2018-09-28T12:25:01.960Z,1244
2018-09-28T12:26:02.626Z,1236
2018-09-28T12:27:03.307Z,1196
2018-09-28T12:28:03.986Z,1116
2018-09-28T12:29:04.706Z,1300
2018-09-28T12:30:05.386Z,1296
2018-09-28T12:31:06.107Z,1168
2018-09-28T12:32:06.785Z,1192
2018-09-28T12:33:07.520Z,1248
2018-09-28T12:34:08.176Z,1316
2018-09-28T12:35:08.877Z,1400
2018-09-28T12:36:09.616Z,1320
2018-09-28T12:37:10.255Z,1132
2018-09-28T12:38:10.932Z,1068
2018-09-28T12:39:11.689Z,1316
2018-09-28T12:40:12.328Z,1560
2018-09-28T12:41:13.009Z,1584
2018-09-28T12:42:13.738Z,1528
2018-09-28T12:43:14.406Z,1428
2018-09-28T12:44:15.109Z,1288
2018-09-28T12:45:15.859Z,1204
2018-09-28T12:46:16.441Z,1192
2018-09-28T12:47:17.188Z,1296
2018-09-28T12:48:17.936Z,1460
2018-09-28T12:49:18.562Z,1640
2018-09-28T12:50:19.293Z,1780
2018-09-28T12:51:19.920Z,1940
2018-09-28T12:52:20.596Z,2116
2018-09-28T12:53:21.276Z,2284
2018-09-28T12:54:22.052Z,2360
2018-09-28T12:55:22.673Z,2440
2018-09-28T12:56:23.430Z,2540
2018-09-28T12:57:24.028Z,2560
2018-09-28T12:58:24.713Z,2444
2018-09-28T12:59:25.387Z,2276
2018-09-28T13:00:26.104Z,2104
2018-09-28T13:01:26.741Z,2000
2018-09-28T13:02:27.506Z,2004
2018-09-28T13:03:28.098Z,2044
2018-09-28T13:04:28.776Z,2020
2018-09-28T13:05:29.455Z,1904
2018-09-28T13:06:30.148Z,1772
2018-09-28T13:07:30.810Z,1680
2018-09-28T13:08:31.516Z,1692
2018-09-28T13:09:32.167Z,1716
2018-09-28T13:10:32.846Z,1656
2018-09-28T13:11:33.523Z,1524
2018-09-28T13:12:34.213Z,1488
2018-09-28T13:13:34.880Z,1584
2018-09-28T13:14:35.593Z,1756
2018-09-28T13:15:36.274Z,1816
2018-09-28T13:16:36.956Z,1824
2018-09-28T13:17:37.711Z,1752
2018-09-28T13:18:38.472Z,1564
2018-09-28T13:19:39.076Z,1428
2018-09-28T13:20:39.778Z,1432
2018-09-28T13:21:40.476Z,1480
2018-09-28T13:22:41.111Z,1468
2018-09-28T13:23:41.795Z,1364
2018-09-28T13:24:42.558Z,1284
2018-09-28T13:25:43.191Z,1252
2018-09-28T13:26:43.931Z,1176
2018-09-28T13:27:44.548Z,1112
2018-09-28T13:28:45.226Z,1048
2018-09-28T13:29:45.903Z,992
2018-09-28T13:30:46.616Z,976
2018-09-28T13:31:47.256Z,984
2018-09-28T13:32:47.992Z,956
2018-09-28T13:33:48.630Z,896
2018-09-28T13:34:49.339Z,864
2018-09-28T13:35:50.051Z,892
2018-09-28T13:36:50.824Z,924
2018-09-28T13:37:51.403Z,928
2018-09-28T13:38:52.242Z,896
2018-09-28T13:39:52.824Z,840
2018-09-28T13:40:53.513Z,792
2018-09-28T13:41:54.192Z,752
2018-09-28T13:42:54.868Z,708
2018-09-28T13:43:55.544Z,656
2018-09-28T13:44:56.253Z,592
2018-09-28T13:45:56.981Z,596
2018-09-28T13:46:57.614Z,716
2018-09-28T13:47:58.289Z,828
2018-09-28T13:48:58.969Z,904
2018-09-28T13:49:59.645Z,952
2018-09-28T13:51:00.322Z,964
2018-09-28T13:52:01.079Z,968
2018-09-28T13:53:01.767Z,1020
2018-09-28T13:54:02.446Z,1104
2018-09-28T13:55:03.124Z,1176
2018-09-28T13:56:03.808Z,1272
2018-09-28T13:57:04.523Z,1428
2018-09-28T13:58:05.251Z,1628
2018-09-28T13:59:05.968Z,1796
2018-09-28T14:00:06.646Z,1980